Time;durP1;ratioP1;P1;durP2;ratioP2;P2;SDS_P1;SDS_P2;PMS_P1;PMS_P2;Temp;Humidity;BMP_temperature;BMP_pressure;BME280_temperature;BME280_humidity;BME280_pressure;Samples;Min_cycle;Max_cycle;Signal;HPM_P1;HPM_P2
2021/10/04 00:01:19;;;;;;;2.75;2.55;;;15.00;99.90;;;15.96;92.60;97859.19;5181385;28;20613;-58
2021/10/04 00:03:54;;;;;;;2.78;2.58;;;15.00;99.90;;;16.04;91.58;97857.75;5183079;28;20194;-57
2021/10/04 00:06:28;;;;;;;2.67;2.50;;;15.00;99.90;;;16.01;92.15;97856.78;5184026;28;20203;-61
2021/10/04 00:09:01;;;;;;;2.42;2.30;;;15.00;99.90;;;15.97;91.67;97855.81;5185069;28;20222;-60
2021/10/04 00:11:34;;;;;;;2.80;2.60;;;14.80;99.90;;;15.92;91.84;97849.59;5184163;28;20681;-60
2021/10/04 00:14:07;;;;;;;2.22;2.10;;;14.80;99.90;;;15.96;91.74;97848.88;5182239;28;20309;-58
2021/10/04 00:16:40;;;;;;;2.60;2.40;;;14.80;99.90;;;15.90;91.45;97846.94;5183187;28;20676;-61
2021/10/04 00:19:15;;;;;;;2.35;2.25;;;14.80;99.90;;;15.87;91.63;97838.25;5183676;28;20292;-58
2021/10/04 00:21:49;;;;;;;2.50;2.30;;;14.80;99.90;;;15.82;91.86;97838.06;5184152;28;20677;-62
2021/10/04 00:24:22;;;;;;;2.50;2.40;;;14.90;99.90;;;15.83;91.87;97833.81;5183831;28;20637;-58
2021/10/04 00:26:55;;;;;;;2.47;2.28;;;14.90;99.90;;;15.85;91.65;97840.78;5183757;28;20202;-61
2021/10/04 00:29:28;;;;;;;2.83;2.63;;;14.90;99.90;;;15.82;91.91;97839.78;5180557;28;20595;-61
2021/10/04 00:32:01;;;;;;;2.78;2.58;;;14.90;99.90;;;15.84;91.76;97844.16;5176576;28;20625;-62
2021/10/04 00:34:35;;;;;;;2.67;2.47;;;14.90;99.90;;;15.85;91.87;97847.63;5183988;28;20232;-62
2021/10/04 00:37:08;;;;;;;2.50;2.35;;;14.90;99.90;;;15.86;92.13;97854.53;5185235;28;20312;-62
2021/10/04 00:39:42;;;;;;;2.70;2.50;;;14.90;99.90;;;15.83;92.19;97857.88;5182453;28;20306;-63
2021/10/04 00:42:15;;;;;;;2.63;2.47;;;14.90;99.90;;;15.83;91.95;97857.88;5176478;28;20722;-62
2021/10/04 00:44:48;;;;;;;2.88;2.67;;;14.90;99.90;;;15.84;91.80;97864.78;5182324;28;20611;-63
2021/10/04 00:47:21;;;;;;;2.70;2.50;;;14.90;99.90;;;15.83;91.82;97873.34;5181433;28;20201;-63
2021/10/04 00:49:55;;;;;;;2.95;2.75;;;14.90;99.90;;;15.83;91.80;97863.03;5183699;28;20233;-62
2021/10/04 00:52:28;;;;;;;2.70;2.53;;;14.90;99.90;;;15.85;91.65;97871.72;5183031;28;20207;-62
2021/10/04 00:55:01;;;;;;;3.30;3.00;;;14.90;99.90;;;15.86;92.00;97868.31;5179774;28;20285;-61
2021/10/04 00:57:36;;;;;;;2.70;2.50;;;14.80;99.90;;;15.86;92.16;97862.28;5188789;28;20570;-63
2021/10/04 01:00:14;;;;;;;3.25;2.72;;;14.80;99.90;;;15.82;92.04;97860.38;5182639;28;20285;-62
2021/10/04 01:02:47;;;;;;;2.80;2.60;;;14.80;99.90;;;15.83;91.99;97857.00;5187747;28;20205;-65
2021/10/04 01:05:22;;;;;;;2.95;2.75;;;14.90;99.90;;;15.80;92.17;97862.06;5180823;28;20737;-60
2021/10/04 01:07:55;;;;;;;2.95;2.75;;;14.80;99.90;;;15.80;92.23;97854.31;5188668;28;20221;-63
2021/10/04 01:10:28;;;;;;;3.05;2.85;;;14.80;99.90;;;15.80;92.37;97864.63;5176693;28;20291;-63
2021/10/04 01:13:01;;;;;;;2.95;2.72;;;14.90;99.90;;;15.79;92.30;97866.31;5187712;28;20195;-62
2021/10/04 01:15:34;;;;;;;3.10;2.80;;;14.80;99.90;;;15.79;92.41;97865.44;5182656;28;20592;-60
2021/10/04 01:18:08;;;;;;;3.80;3.20;;;14.80;99.90;;;15.80;92.24;97867.22;5189398;28;20233;-63
2021/10/04 01:20:43;;;;;;;2.88;2.67;;;14.80;99.90;;;15.79;92.25;97880.91;5185189;28;20684;-58
2021/10/04 01:23:16;;;;;;;3.10;2.80;;;14.90;99.90;;;15.80;91.90;97882.69;5187554;28;20302;-61
2021/10/04 01:25:49;;;;;;;2.97;2.78;;;14.80;99.90;;;15.75;92.31;97885.94;5183063;28;20206;-59
2021/10/04 01:28:22;;;;;;;2.70;2.50;;;14.80;99.90;;;15.76;90.96;97874.81;5183539;28;20219;-59
2021/10/04 01:30:55;;;;;;;2.58;2.40;;;14.80;99.90;;;15.76;90.55;97859.34;5187083;28;20203;-58
2021/10/04 01:33:28;;;;;;;2.35;2.17;;;14.80;99.90;;;15.71;89.55;97854.88;5186279;28;20199;-58
2021/10/04 01:36:03;;;;;;;2.25;2.08;;;14.70;99.90;;;15.67;88.47;97871.84;5186551;28;20198;-59
2021/10/04 01:38:36;;;;;;;2.00;1.80;;;14.70;99.90;;;15.66;86.42;97858.94;5187874;28;20233;-58
2021/10/04 01:41:10;;;;;;;1.77;1.67;;;14.70;99.90;;;15.58;85.51;97862.91;5196564;28;20604;-60
2021/10/04 01:43:43;;;;;;;1.85;1.75;;;14.60;99.90;;;15.57;85.25;97879.19;5186288;28;20205;-56
2021/10/04 01:46:17;;;;;;;1.80;1.70;;;14.60;99.90;;;15.64;83.71;97871.75;5188519;28;20361;-58
2021/10/04 01:48:51;;;;;;;1.75;1.65;;;14.60;99.90;;;15.63;82.82;97863.97;5185322;28;20215;-60
2021/10/04 01:51:25;;;;;;;2.08;1.98;;;14.60;99.90;;;15.58;82.89;97868.06;5189527;28;20742;-57
2021/10/04 01:53:58;;;;;;;2.00;1.90;;;14.60;99.90;;;15.60;82.98;97869.00;5185202;28;20285;-57
2021/10/04 01:56:31;;;;;;;1.88;1.77;;;14.60;99.90;;;15.60;82.44;97882.78;5194759;28;20206;-63
2021/10/04 01:59:04;;;;;;;1.60;1.50;;;14.50;99.90;;;15.58;82.68;97897.28;5184746;28;20227;-56
2021/10/04 02:01:37;;;;;;;1.90;1.80;;;14.50;99.90;;;15.57;82.43;97900.69;5185514;28;20293;-58
2021/10/04 02:04:10;;;;;;;1.80;1.70;;;14.50;99.90;;;15.49;82.10;97904.66;5185853;28;20267;-56
2021/10/04 02:06:49;;;;;;;2.03;1.85;;;14.50;99.90;;;15.44;82.10;97898.47;5185370;28;20206;-57
2021/10/04 02:09:22;;;;;;;2.10;1.90;;;14.50;99.90;;;15.43;82.59;97891.56;5181786;28;20309;-56
2021/10/04 02:11:55;;;;;;;1.90;1.80;;;14.50;99.90;;;15.39;83.01;97902.53;5189063;28;20290;-61
2021/10/04 02:14:29;;;;;;;1.90;1.80;;;14.40;99.90;;;15.37;83.27;97901.63;5185896;28;20289;-59
2021/10/04 02:17:02;;;;;;;1.70;1.60;;;14.50;99.90;;;15.38;83.45;97908.53;5185558;28;20285;-62
2021/10/04 02:19:35;;;;;;;1.77;1.67;;;14.50;99.90;;;15.36;83.28;97911.03;5185144;28;20226;-60
2021/10/04 02:22:09;;;;;;;1.77;1.67;;;14.40;99.90;;;15.39;82.84;97910.28;5184426;28;20201;-58
2021/10/04 02:24:42;;;;;;;1.80;1.70;;;14.40;99.90;;;15.42;82.04;97911.25;5184287;28;20284;-63
2021/10/04 02:27:15;;;;;;;1.98;1.88;;;14.40;99.90;;;15.36;82.22;97917.88;5186019;28;20205;-60
2021/10/04 02:29:48;;;;;;;1.83;1.60;;;14.40;99.90;;;15.32;82.58;97912.63;5185241;28;20223;-61
2021/10/04 02:32:21;;;;;;;1.77;1.67;;;14.40;99.90;;;15.24;82.78;97911.44;5187339;28;20290;-58
2021/10/04 02:34:54;;;;;;;1.70;1.60;;;14.40;99.90;;;15.23;83.14;97917.41;5183475;28;20197;-57
2021/10/04 02:37:29;;;;;;;1.80;1.70;;;14.40;99.90;;;15.25;83.06;97915.78;5182486;28;20341;-60
2021/10/04 02:40:02;;;;;;;2.00;1.90;;;14.40;99.90;;;15.14;83.52;97918.72;5185400;28;20594;-60
2021/10/04 02:42:37;;;;;;;1.90;1.80;;;14.30;99.90;;;15.09;83.25;97916.84;5192999;28;20214;-60
2021/10/04 02:45:14;;;;;;;2.10;2.00;;;14.30;99.90;;;15.04;84.09;97923.50;5186547;28;20224;-59
2021/10/04 02:47:49;;;;;;;1.88;1.77;;;14.30;99.90;;;15.00;84.96;97916.50;5184619;28;20203;-57
2021/10/04 02:50:25;;;;;;;2.22;2.10;;;14.20;99.90;;;14.96;85.98;97900.84;5190714;28;20289;-60
2021/10/04 02:53:00;;;;;;;2.13;1.92;;;14.20;99.90;;;14.93;86.07;97903.28;5184552;28;20224;-60
2021/10/04 02:55:33;;;;;;;2.00;1.90;;;14.20;99.90;;;14.93;86.47;97918.75;5190652;28;20210;-60
2021/10/04 02:58:06;;;;;;;1.95;1.85;;;14.10;99.90;;;14.90;86.99;97916.91;5184102;28;20237;-60
2021/10/04 03:00:39;;;;;;;1.98;1.70;;;14.10;99.90;;;14.89;86.92;97916.88;5192427;28;20745;-58
2021/10/04 03:03:13;;;;;;;2.90;1.92;;;14.00;99.90;;;14.80;87.80;97907.94;5184499;28;20199;-64
2021/10/04 03:05:46;;;;;;;1.75;1.65;;;14.00;99.90;;;14.78;87.84;97912.16;5184234;28;20203;-60
2021/10/04 03:08:21;;;;;;;1.95;1.85;;;14.00;99.90;;;14.82;88.34;97921.78;5181371;28;20214;-58
2021/10/04 03:10:54;;;;;;;1.98;1.88;;;14.00;99.90;;;14.81;88.99;97929.41;5178130;28;20560;-60
2021/10/04 03:13:27;;;;;;;2.05;1.95;;;14.00;99.90;;;14.78;88.77;97924.13;5176939;28;20578;-57
2021/10/04 03:16:01;;;;;;;1.90;1.80;;;13.90;99.90;;;14.78;88.82;97940.44;5190757;28;20303;-60
2021/10/04 03:18:34;;;;;;;2.13;2.03;;;13.90;99.90;;;14.69;89.61;97936.63;5185319;28;20240;-65
2021/10/04 03:21:07;;;;;;;1.92;1.83;;;13.90;99.90;;;14.68;89.49;97909.13;5183644;28;20199;-56
2021/10/04 03:23:41;;;;;;;3.03;2.83;;;13.80;99.90;;;14.63;89.29;97914.97;5183563;28;20203;-58
2021/10/04 03:26:15;;;;;;;2.58;2.40;;;13.80;99.90;;;14.64;89.94;97905.56;5183004;28;20195;-58
2021/10/04 03:28:48;;;;;;;2.25;2.05;;;13.80;99.90;;;14.64;90.52;97924.44;5182991;28;20309;-58
2021/10/04 03:31:21;;;;;;;2.40;2.17;;;13.80;99.90;;;14.61;90.79;97928.56;5192145;28;20209;-61
2021/10/04 03:33:54;;;;;;;1.90;1.80;;;13.80;99.90;;;14.63;90.43;97940.69;5185967;28;20202;-59
2021/10/04 03:36:27;;;;;;;2.08;1.90;;;13.80;99.90;;;14.55;91.70;97931.78;5184502;28;20201;-65
2021/10/04 03:39:02;;;;;;;2.10;2.00;;;13.70;99.90;;;14.54;91.79;97950.59;5183132;28;20317;-59
2021/10/04 03:41:36;;;;;;;2.28;1.92;;;13.70;99.90;;;14.63;91.64;97944.97;5188744;28;20209;-59
2021/10/04 03:44:09;;;;;;;2.00;1.90;;;13.70;99.90;;;14.54;91.70;97944.59;5182344;28;20230;-58
2021/10/04 03:46:42;;;;;;;2.20;2.10;;;13.70;99.90;;;14.62;91.49;97958.63;5187390;28;20194;-62
2021/10/04 03:49:15;;;;;;;2.08;1.98;;;13.70;99.90;;;14.59;91.41;97953.34;5181758;28;20226;-59
2021/10/04 03:51:48;;;;;;;2.58;2.38;;;13.70;99.90;;;14.53;91.37;97945.38;5188472;28;20205;-62
2021/10/04 03:54:22;;;;;;;2.00;1.90;;;13.60;99.90;;;14.52;91.54;97946.19;5183222;28;20220;-62
2021/10/04 03:56:55;;;;;;;2.22;2.13;;;13.60;99.90;;;14.41;91.88;97944.00;5177703;28;20653;-61
2021/10/04 03:59:28;;;;;;;2.40;1.95;;;13.60;99.90;;;14.40;91.89;97943.94;5183923;28;20232;-61
2021/10/04 04:02:02;;;;;;;2.33;2.13;;;13.60;99.90;;;14.33;92.31;97950.50;5183875;28;20302;-59
2021/10/04 04:04:35;;;;;;;2.13;2.03;;;13.60;99.90;;;14.34;92.96;97954.84;5184251;28;20203;-62
2021/10/04 04:07:08;;;;;;;2.40;2.30;;;13.60;99.90;;;14.33;93.19;97965.91;5181626;28;20230;-61
2021/10/04 04:09:43;;;;;;;2.65;2.50;;;13.50;99.90;;;14.31;93.07;97967.56;5182213;28;20591;-62
2021/10/04 04:12:16;;;;;;;2.40;2.30;;;13.50;99.90;;;14.24;94.26;97970.66;5182856;28;20281;-61
2021/10/04 04:14:49;;;;;;;2.50;2.30;;;13.50;99.90;;;14.20;94.84;97969.66;5183969;28;20210;-62
2021/10/04 04:17:22;;;;;;;2.83;2.63;;;13.40;99.90;;;14.17;94.89;97969.53;5183055;28;20209;-62
2021/10/04 04:19:55;;;;;;;2.60;2.40;;;13.40;99.90;;;14.16;95.88;97972.00;5183629;28;20226;-62
2021/10/04 04:22:28;;;;;;;2.45;2.35;;;13.50;99.90;;;14.17;95.72;97976.38;5182430;28;20571;-61
2021/10/04 04:25:04;;;;;;;2.40;2.20;;;13.40;99.90;;;14.13;96.10;97959.91;5182451;28;20709;-62
2021/10/04 04:27:41;;;;;;;2.45;2.35;;;13.40;99.90;;;14.06;96.47;97965.59;5207150;22;20220;-60
2021/10/04 04:30:15;;;;;;;2.42;2.33;;;13.40;99.90;;;14.07;97.26;97969.03;5224094;28;20192;-61
2021/10/04 04:32:48;;;;;;;2.20;2.00;;;13.30;99.90;;;14.09;97.05;97975.13;5226740;28;20189;-60
2021/10/04 04:35:21;;;;;;;2.33;2.22;;;13.40;99.90;;;14.10;97.12;97982.03;5229578;28;20205;-62
2021/10/04 04:37:54;;;;;;;2.30;2.20;;;13.30;99.90;;;14.10;97.45;97979.44;5227723;28;20219;-60
2021/10/04 04:40:29;;;;;;;2.40;2.30;;;13.40;99.90;;;14.09;96.85;97985.41;5226874;28;20225;-60
2021/10/04 04:43:03;;;;;;;2.15;2.05;;;13.30;99.90;;;14.02;96.83;97989.41;5227003;28;20199;-60
2021/10/04 04:45:36;;;;;;;2.63;2.42;;;13.30;99.90;;;14.02;97.44;97998.78;5225154;28;20197;-61
2021/10/04 04:48:09;;;;;;;2.72;2.53;;;13.20;99.90;;;13.97;97.67;97994.31;5223562;28;21003;-59
2021/10/04 04:50:42;;;;;;;2.83;2.60;;;13.20;99.90;;;13.89;97.71;97984.50;5227309;28;20626;-61
2021/10/04 04:53:15;;;;;;;3.80;2.50;;;13.20;99.90;;;13.90;98.18;97994.84;5229094;28;20201;-60
2021/10/04 04:55:49;;;;;;;2.42;2.22;;;13.20;99.90;;;13.85;98.13;97986.06;5227433;28;20205;-60
2021/10/04 04:58:22;;;;;;;2.55;2.35;;;13.10;99.90;;;13.82;99.22;97990.16;5219029;28;20247;-57
2021/10/04 05:00:55;;;;;;;2.35;2.25;;;13.10;99.90;;;13.79;98.90;97995.16;5225175;28;20217;-60
2021/10/04 05:03:29;;;;;;;2.60;2.40;;;13.10;99.90;;;13.81;99.20;97996.13;5227179;28;20673;-62
2021/10/04 05:06:02;;;;;;;2.55;2.42;;;13.20;99.90;;;13.83;99.47;98005.66;5225279;28;20208;-60
2021/10/04 05:08:35;;;;;;;2.90;2.53;;;13.20;99.90;;;13.85;99.58;97996.34;5227156;28;20316;-60
2021/10/04 05:11:09;;;;;;;2.55;2.35;;;13.10;99.90;;;13.86;99.08;97997.22;5227895;28;20197;-62
2021/10/04 05:13:43;;;;;;;2.58;2.38;;;13.10;99.90;;;13.81;99.03;97999.56;5228951;28;20206;-59
2021/10/04 05:16:19;;;;;;;2.50;2.30;;;13.10;99.90;;;13.82;98.35;98015.84;5227903;28;20569;-62
2021/10/04 05:18:52;;;;;;;2.40;2.10;;;13.00;99.90;;;13.78;98.89;98021.66;5222200;28;20722;-62
2021/10/04 05:21:25;;;;;;;2.13;1.92;;;13.00;99.90;;;13.84;97.66;98020.25;5226543;28;20597;-61
2021/10/04 05:23:58;;;;;;;2.28;2.17;;;13.00;99.90;;;13.74;97.58;98025.78;5225082;28;20201;-61
2021/10/04 05:26:33;;;;;;;2.25;2.05;;;13.00;99.90;;;13.75;97.96;98030.97;5227492;28;20209;-62
2021/10/04 05:29:06;;;;;;;3.08;2.20;;;13.00;99.90;;;13.70;97.81;98032.44;5228366;28;20307;-63
2021/10/04 05:31:39;;;;;;;2.20;2.00;;;12.90;99.90;;;13.70;98.07;98026.44;5226953;28;20228;-61
2021/10/04 05:34:12;;;;;;;1.90;1.80;;;12.90;99.90;;;13.68;98.09;98026.38;5223854;28;20196;-60
2021/10/04 05:36:45;;;;;;;1.77;1.67;;;12.90;99.90;;;13.69;97.69;98029.81;5224686;28;20211;-61
2021/10/04 05:39:18;;;;;;;1.80;1.70;;;12.90;99.90;;;13.56;98.01;98022.31;5225290;28;20235;-60
2021/10/04 05:41:53;;;;;;;1.80;1.77;;;12.80;99.90;;;13.51;98.88;98032.41;5228137;28;20316;-62
2021/10/04 05:44:26;;;;;;;2.08;1.85;;;12.80;99.90;;;13.53;99.00;98033.31;5220844;28;20196;-58
2021/10/04 05:46:59;;;;;;;1.95;1.85;;;12.80;99.90;;;13.52;99.34;98023.88;5227767;28;20205;-61
2021/10/04 05:49:32;;;;;;;1.92;1.83;;;12.80;99.90;;;13.49;99.11;98029.75;5221372;28;20198;-62
2021/10/04 05:52:05;;;;;;;1.60;1.60;;;12.80;99.90;;;13.45;99.10;98035.53;5222619;28;20676;-62
2021/10/04 05:54:38;;;;;;;1.83;1.73;;;12.70;99.90;;;13.40;99.64;98042.13;5228431;28;20284;-63
2021/10/04 05:57:13;;;;;;;1.95;1.85;;;12.70;99.90;;;13.39;99.24;98055.78;5233496;28;20287;-62
2021/10/04 05:59:46;;;;;;;2.17;2.08;;;12.60;99.90;;;13.41;99.32;98056.72;5226360;28;20207;-59
2021/10/04 06:02:19;;;;;;;2.25;2.15;;;12.60;99.90;;;13.45;99.71;98050.06;5220774;28;20733;-60
2021/10/04 06:04:52;;;;;;;1.95;1.85;;;12.70;99.90;;;13.44;100.00;98054.31;5226697;28;20288;-58
2021/10/04 06:07:25;;;;;;;2.63;2.42;;;12.70;99.90;;;13.42;100.00;98055.94;5222881;28;20217;-60
2021/10/04 06:09:58;;;;;;;2.45;2.25;;;12.70;99.90;;;13.46;100.00;98051.81;5223822;28;20190;-58
2021/10/04 06:12:33;;;;;;;2.40;2.30;;;12.70;99.90;;;13.43;100.00;98052.56;5225046;28;20298;-60
2021/10/04 06:15:06;;;;;;;2.00;1.90;;;12.70;99.90;;;13.45;100.00;98065.47;5225522;28;20204;-59
2021/10/04 06:17:39;;;;;;;1.98;1.88;;;12.60;99.90;;;13.39;100.00;98076.34;5222503;28;20301;-60
2021/10/04 06:20:14;;;;;;;2.28;1.88;;;12.60;99.90;;;13.40;100.00;98075.50;5212662;28;20659;-61
2021/10/04 06:22:48;;;;;;;2.10;2.00;;;12.70;99.90;;;13.41;100.00;98079.84;5224114;28;20569;-59
2021/10/04 06:25:21;;;;;;;2.22;2.03;;;12.60;99.90;;;13.37;100.00;98085.63;5215760;28;20290;-60
2021/10/04 06:27:55;;;;;;;2.30;2.20;;;12.60;99.90;;;13.35;100.00;98089.81;5216346;28;20224;-58
2021/10/04 06:30:29;;;;;;;3.08;2.13;;;12.50;99.90;;;13.32;100.00;98079.38;5222932;28;20640;-60
2021/10/04 06:33:02;;;;;;;2.50;2.40;;;12.50;99.90;;;13.29;100.00;98086.94;5224199;28;20295;-60
2021/10/04 06:35:35;;;;;;;2.45;2.35;;;12.50;99.90;;;13.31;100.00;98092.16;5221154;28;20252;-62
2021/10/04 06:38:08;;;;;;;3.47;2.33;;;12.50;99.90;;;13.27;100.00;98102.25;5216555;28;20309;-58
2021/10/04 06:40:41;;;;;;;2.80;2.60;;;12.50;99.90;;;13.33;100.00;98098.22;5230900;28;20311;-61
2021/10/04 06:43:16;;;;;;;3.10;2.60;;;12.50;99.90;;;13.32;100.00;98099.91;5232140;28;20189;-61
2021/10/04 06:45:49;;;;;;;2.97;2.78;;;12.50;99.90;;;13.30;100.00;98096.38;5225119;28;20690;-60
2021/10/04 06:48:22;;;;;;;2.88;2.60;;;12.40;99.90;;;13.29;100.00;98104.91;5223701;28;20225;-61
2021/10/04 06:50:55;;;;;;;4.03;2.67;;;12.50;99.90;;;13.33;100.00;98101.69;5222715;28;20190;-60
2021/10/04 06:53:28;;;;;;;2.80;2.60;;;12.40;99.90;;;13.30;100.00;98111.78;5209638;28;20389;-60
2021/10/04 06:56:01;;;;;;;3.92;2.90;;;12.40;99.90;;;13.34;100.00;98118.88;5205590;28;20202;-61
2021/10/04 06:58:35;;;;;;;3.35;2.85;;;12.40;99.90;;;13.33;100.00;98122.22;5206524;28;20229;-60
2021/10/04 07:01:08;;;;;;;3.05;2.80;;;12.40;99.90;;;13.33;100.00;98129.03;5212849;28;20213;-59
2021/10/04 07:03:41;;;;;;;2.90;2.60;;;12.40;99.90;;;13.34;100.00;98131.69;5211840;28;20626;-60
2021/10/04 07:06:15;;;;;;;2.92;2.55;;;12.40;99.90;;;13.35;100.00;98130.00;5206244;28;20658;-58
2021/10/04 07:08:48;;;;;;;3.00;2.80;;;12.40;99.90;;;13.28;100.00;98132.28;5219535;28;20304;-61
2021/10/04 07:11:21;;;;;;;2.70;2.50;;;12.30;99.90;;;13.31;100.00;98131.53;5211212;28;20636;-58
2021/10/04 07:13:56;;;;;;;2.95;2.75;;;12.30;99.90;;;13.27;100.00;98127.03;5206067;28;20284;-60
2021/10/04 07:16:29;;;;;;;3.65;2.80;;;12.40;99.90;;;13.32;100.00;98135.00;5221479;28;20192;-62
2021/10/04 07:19:03;;;;;;;3.00;2.78;;;12.40;99.90;;;13.24;100.00;98142.25;5217773;28;20264;-61
2021/10/04 07:21:36;;;;;;;2.83;2.58;;;12.30;99.90;;;13.27;100.00;98148.44;5226600;28;20309;-60
2021/10/04 07:24:09;;;;;;;3.38;2.75;;;12.40;99.90;;;13.28;100.00;98144.22;5225953;28;20669;-60
2021/10/04 07:26:42;;;;;;;2.75;2.55;;;12.40;99.90;;;13.33;100.00;98147.88;5225778;28;20232;-61
2021/10/04 07:29:18;;;;;;;2.90;2.60;;;12.40;99.90;;;13.34;100.00;98165.06;5226284;28;20229;-59
2021/10/04 07:31:51;;;;;;;2.72;2.40;;;12.40;99.90;;;13.34;100.00;98167.63;5226821;28;20275;-60
2021/10/04 07:34:24;;;;;;;2.83;2.63;;;12.40;99.90;;;13.35;100.00;98171.97;5225651;28;20204;-60
2021/10/04 07:36:57;;;;;;;3.60;2.70;;;12.40;99.90;;;13.44;100.00;98167.28;5225971;28;20189;-60
2021/10/04 07:39:32;;;;;;;2.97;2.40;;;12.40;99.90;;;13.42;100.00;98168.91;5226354;28;20201;-59
2021/10/04 07:42:05;;;;;;;2.92;2.67;;;12.50;99.90;;;13.41;100.00;98167.13;5226625;28;20221;-60
2021/10/04 07:44:39;;;;;;;2.63;2.47;;;12.50;99.90;;;13.44;100.00;98180.13;5226491;28;20288;-61
2021/10/04 07:47:13;;;;;;;2.55;2.35;;;12.40;99.90;;;13.40;100.00;98183.34;5223873;28;20204;-60
2021/10/04 07:49:46;;;;;;;3.30;2.28;;;12.40;99.90;;;13.39;100.00;98184.16;5206942;28;20285;-63
2021/10/04 07:52:21;;;;;;;2.97;2.72;;;12.50;99.90;;;13.40;100.00;98196.19;5221585;28;20703;-59
2021/10/04 07:54:54;;;;;;;6.07;3.10;;;12.50;99.90;;;13.40;100.00;98185.94;5226358;28;20287;-61
2021/10/04 07:57:27;;;;;;;4.45;2.60;;;12.40;99.90;;;13.40;100.00;98198.75;5225769;28;20231;-62
2021/10/04 08:00:01;;;;;;;4.47;2.95;;;12.40;99.90;;;13.38;100.00;98205.50;5225379;28;20203;-62
2021/10/04 08:02:36;;;;;;;3.28;2.80;;;12.50;99.90;;;13.42;100.00;98210.00;5224768;28;20204;-59
2021/10/04 08:05:10;;;;;;;2.42;2.20;;;12.50;99.90;;;13.45;100.00;98215.28;5225988;28;20201;-63
2021/10/04 08:07:43;;;;;;;2.63;2.42;;;12.50;99.90;;;13.42;100.00;98215.13;5225283;28;20231;-63
2021/10/04 08:10:17;;;;;;;2.33;2.20;;;12.40;99.90;;;13.43;100.00;98219.47;5213197;28;20293;-63
2021/10/04 08:12:51;;;;;;;2.63;2.13;;;12.50;99.90;;;13.50;100.00;98224.09;5205723;28;20236;-63
2021/10/04 08:15:26;;;;;;;2.60;2.40;;;12.50;99.90;;;13.47;100.00;98223.06;5223999;28;20288;-63
2021/10/04 08:17:59;;;;;;;2.92;2.63;;;12.50;99.90;;;13.50;100.00;98228.34;5224943;28;20227;-61
2021/10/04 08:20:32;;;;;;;2.53;2.33;;;12.60;99.90;;;13.51;100.00;98225.88;5215427;28;20185;-63
2021/10/04 08:23:05;;;;;;;3.05;2.75;;;12.60;99.90;;;13.55;100.00;98231.16;5225096;28;20554;-62
2021/10/04 08:25:38;;;;;;;2.85;2.70;;;12.60;99.90;;;13.57;100.00;98232.13;5225949;28;20209;-63
2021/10/04 08:28:11;;;;;;;2.83;2.63;;;12.60;99.90;;;13.60;100.00;98224.59;5225129;28;20310;-61
2021/10/04 08:30:46;;;;;;;2.63;2.45;;;12.60;99.90;;;13.61;100.00;98228.91;5226093;28;20680;-62
2021/10/04 08:33:19;;;;;;;3.75;2.90;;;12.60;99.90;;;13.66;100.00;98227.47;5219620;28;20196;-62
2021/10/04 08:35:52;;;;;;;2.85;2.60;;;12.70;99.90;;;13.67;100.00;98231.78;5205174;28;20200;-61
2021/10/04 08:38:26;;;;;;;2.53;2.30;;;12.60;99.90;;;13.63;100.00;98219.59;5204667;28;20240;-62
2021/10/04 08:40:59;;;;;;;2.13;1.88;;;12.70;99.90;;;13.59;100.00;98239.13;5205405;28;20206;-62
2021/10/04 08:43:32;;;;;;;1.85;1.77;;;12.60;99.90;;;13.48;100.00;98240.25;5205183;28;20304;-61
2021/10/04 08:46:07;;;;;;;1.67;1.58;;;12.60;99.90;;;13.47;100.00;98238.47;5205121;28;20297;-62
2021/10/04 08:48:41;;;;;;;2.55;2.35;;;12.60;99.90;;;13.45;100.00;98245.22;5205944;28;20221;-62
2021/10/04 08:51:14;;;;;;;2.17;1.98;;;12.50;99.90;;;13.34;100.00;98244.66;5205256;28;20205;-61
2021/10/04 08:53:47;;;;;;;2.08;1.83;;;12.50;99.90;;;13.31;100.00;98236.81;5208670;28;20205;-62
2021/10/04 08:56:21;;;;;;;4.63;2.50;;;12.40;99.90;;;13.30;100.00;98240.16;5225772;28;20201;-60
2021/10/04 08:58:54;;;;;;;2.83;2.05;;;12.40;99.90;;;13.30;100.00;98235.03;5225137;28;20225;-59
2021/10/04 09:01:28;;;;;;;1.55;1.45;;;12.40;99.90;;;13.27;100.00;98260.53;5225391;28;20223;-61
2021/10/04 09:04:04;;;;;;;1.38;1.38;;;12.40;99.90;;;13.65;100.00;98253.94;5214509;28;20202;-61
2021/10/04 09:06:39;;;;;;;1.60;1.50;;;12.50;99.90;;;13.54;100.00;98255.97;5205080;28;20644;-59
2021/10/04 09:09:15;;;;;;;1.65;1.55;;;12.60;99.90;;;13.56;100.00;98258.59;5204295;28;20225;-60
2021/10/04 09:11:50;;;;;;;1.60;1.50;;;12.60;99.90;;;13.62;100.00;98264.97;5224950;28;20193;-60
2021/10/04 09:14:31;;;;;;;1.48;1.48;;;12.60;99.90;;;13.68;100.00;98266.97;5215003;28;20219;-59
2021/10/04 09:17:08;;;;;;;1.70;1.60;;;12.70;99.90;;;13.71;100.00;98259.41;5225085;28;20672;-60
2021/10/04 09:19:47;;;;;;;1.77;1.67;;;12.70;99.90;;;13.80;100.00;98259.00;5212448;28;20288;-61
2021/10/04 09:22:22;;;;;;;1.70;1.60;;;12.80;99.90;;;13.80;100.00;98256.44;5208424;28;20224;-60
2021/10/04 09:25:05;;;;;;;2.97;2.45;;;12.80;99.90;;;13.82;100.00;98250.56;5209438;28;20665;-61
2021/10/04 09:27:40;;;;;;;1.70;1.60;;;12.90;99.90;;;13.94;100.00;98247.72;5228690;28;20252;-60
2021/10/04 09:30:16;;;;;;;1.20;1.20;;;13.00;99.90;;;14.11;100.00;98246.00;5228708;28;20201;-61
2021/10/04 09:32:53;;;;;;;1.42;1.40;;;13.10;99.90;;;14.33;100.00;98237.63;5228226;28;20227;-61
2021/10/04 09:35:28;;;;;;;1.45;1.35;;;13.20;99.90;;;14.33;100.00;98246.22;5229197;28;20280;-61
2021/10/04 09:38:18;;;;;;;1.40;1.40;;;13.30;99.90;;;14.40;100.00;98256.00;5232071;28;20220;-59
2021/10/04 09:40:53;;;;;;;1.17;1.17;;;13.20;99.90;;;14.53;100.00;98259.19;5246004;28;20197;-61
2021/10/04 09:43:29;;;;;;;1.65;1.55;;;13.20;99.90;;;14.43;100.00;98263.88;5239884;28;20205;-58
2021/10/04 09:46:05;;;;;;;1.20;1.20;;;13.40;99.90;;;14.32;100.00;98266.72;5225749;28;20192;-62
2021/10/04 09:48:39;;;;;;;1.50;1.40;;;13.30;99.90;;;14.17;100.00;98269.44;5208546;28;20217;-60
2021/10/04 09:51:14;;;;;;;1.40;1.30;;;13.10;99.90;;;14.19;100.00;98275.50;5208223;28;20292;-61
2021/10/04 09:54:11;;;;;;;1.80;1.70;;;13.20;99.90;;;14.19;100.00;98278.06;5207867;28;20229;-60
2021/10/04 09:56:44;;;;;;;1.40;1.40;;;13.20;99.90;;;14.24;100.00;98281.78;5227208;28;20323;-60
2021/10/04 09:59:17;;;;;;;1.45;1.45;;;13.10;99.90;;;14.16;100.00;98288.22;5228281;28;20318;-65
2021/10/04 10:01:51;;;;;;;1.73;1.63;;;13.00;99.90;;;14.13;100.00;98283.78;5215184;28;20605;-59
2021/10/04 10:04:26;;;;;;;1.40;1.40;;;13.10;99.90;;;14.10;100.00;98280.19;5206639;28;20198;-61
2021/10/04 10:06:59;;;;;;;1.50;1.50;;;13.00;99.90;;;14.13;100.00;98282.91;5211634;28;20585;-60
2021/10/04 10:09:35;;;;;;;1.17;1.17;;;13.10;99.90;;;14.15;100.00;98276.19;5207491;28;20198;-61
2021/10/04 10:12:09;;;;;;;1.40;1.30;;;13.10;99.90;;;14.22;100.00;98272.22;5217640;28;20276;-62
2021/10/04 10:14:46;;;;;;;1.60;1.52;;;13.20;99.90;;;14.32;100.00;98277.88;5205714;28;20292;-61
2021/10/04 10:17:23;;;;;;;1.75;1.65;;;13.30;99.90;;;14.39;100.00;98279.97;5215459;28;20304;-61
2021/10/04 10:19:59;;;;;;;1.42;1.42;;;13.30;99.90;;;14.53;100.00;98279.78;5221067;28;20676;-60
2021/10/04 10:22:34;;;;;;;1.50;1.50;;;13.50;99.90;;;14.57;100.00;98286.84;5225943;28;20217;-62
2021/10/04 10:25:35;;;;;;;2.08;1.70;;;13.30;99.90;;;14.42;100.00;98276.63;5221377;28;20202;-61
2021/10/04 10:28:34;;;;;;;1.88;1.77;;;13.30;99.90;;;14.46;100.00;98267.41;5213496;28;20232;-62
2021/10/04 10:31:07;;;;;;;1.83;1.80;;;13.40;99.90;;;14.45;100.00;98268.19;5218000;28;20212;-59
2021/10/04 10:33:47;;;;;;;1.90;1.80;;;13.30;99.90;;;14.48;100.00;98263.19;5213012;28;20202;-59
2021/10/04 10:36:59;;;;;;;1.70;1.70;;;13.40;99.90;;;14.58;100.00;98260.28;5218615;28;20216;-59
2021/10/04 10:39:32;;;;;;;1.88;1.77;;;13.50;99.90;;;14.57;100.00;98259.41;5208382;28;20186;-61
2021/10/04 10:42:14;;;;;;;2.00;1.90;;;13.40;99.90;;;14.68;100.00;98261.59;5227311;28;20666;-61
2021/10/04 10:45:18;;;;;;;2.20;2.10;;;13.50;99.90;;;14.67;100.00;98263.31;5226807;28;20802;-60